Time;durP1;ratioP1;P1;durP2;ratioP2;P2;SDS_P1;SDS_P2;PMS_P1;PMS_P2;Temp;Humidity;BMP_temperature;BMP_pressure;BME280_temperature;BME280_humidity;BME280_pressure;Samples;Min_cycle;Max_cycle;Signal;HPM_P1;HPM_P2
2022/04/05 00:02:08;;;;;;;9.15;2.50;;;;;;;6.48;100.00;100241.88;5016129;28;20718;-74
2022/04/05 00:04:34;;;;;;;9.35;1.65;;;;;;;6.51;100.00;100246.00;5017033;28;20022;-75
2022/04/05 00:06:59;;;;;;;8.45;2.45;;;;;;;6.49;100.00;100246.16;5013788;28;20036;-74
2022/04/05 00:09:24;;;;;;;9.70;2.22;;;;;;;6.49;100.00;100240.06;5005243;28;20038;-74
2022/04/05 00:11:50;;;;;;;15.05;1.77;;;;;;;6.43;100.00;100233.59;5020681;28;20112;-74
2022/04/05 00:14:15;;;;;;;10.70;1.52;;;;;;;6.38;100.00;100233.19;5020694;28;20373;-74
2022/04/05 00:16:41;;;;;;;15.40;2.30;;;;;;;6.48;100.00;100254.97;5012236;28;20037;-74
2022/04/05 00:19:06;;;;;;;8.40;1.63;;;;;;;6.38;100.00;100231.41;5017408;28;20486;-75
2022/04/05 00:21:32;;;;;;;9.52;1.98;;;;;;;6.50;100.00;100258.28;5019029;28;20548;-74
2022/04/05 00:23:57;;;;;;;16.50;2.88;;;;;;;6.50;100.00;100257.47;5022995;28;20025;-74
2022/04/05 00:26:23;;;;;;;8.48;1.52;;;;;;;6.45;100.00;100257.06;5027423;28;20556;-74
2022/04/05 00:28:48;;;;;;;15.05;2.50;;;;;;;6.45;100.00;100247.41;5025029;28;20060;-74
2022/04/05 00:31:13;;;;;;;10.88;2.05;;;;;;;6.47;100.00;100263.81;5027154;28;20033;-74
2022/04/05 00:33:39;;;;;;;14.10;2.30;;;;;;;6.45;100.00;100250.03;5028994;28;20056;-74
2022/04/05 00:36:05;;;;;;;8.20;1.80;;;;;;;6.50;100.00;100258.28;5024389;28;20037;-74
2022/04/05 00:38:30;;;;;;;11.80;1.90;;;;;;;6.41;100.00;100253.06;5024507;28;20482;-74
2022/04/05 00:40:56;;;;;;;10.77;1.73;;;;;;;6.41;100.00;100267.00;5018195;28;20029;-74
2022/04/05 00:43:21;;;;;;;9.02;1.25;;;;;;;6.35;100.00;100260.50;5021727;28;20032;-75
2022/04/05 00:45:47;;;;;;;9.38;1.65;;;;;;;6.31;100.00;100258.28;5022604;28;20049;-75
2022/04/05 00:48:26;;;;;;;9.65;1.45;;;;;;;6.26;100.00;100257.88;5025771;28;20034;-74
2022/04/05 00:50:51;;;;;;;6.82;1.35;;;;;;;6.28;100.00;100262.00;5024615;28;20650;-74
2022/04/05 00:53:17;;;;;;;8.60;2.25;;;;;;;6.28;100.00;100255.94;5019827;28;20025;-74
2022/04/05 00:55:43;;;;;;;10.55;1.10;;;;;;;6.27;100.00;100256.91;5025849;28;20113;-74
2022/04/05 00:58:09;;;;;;;12.68;2.05;;;;;;;6.12;100.00;100230.28;5020983;28;20033;-74
2022/04/05 01:00:35;;;;;;;10.35;1.55;;;;;;;6.22;100.00;100259.94;5025985;28;20026;-74
2022/04/05 01:03:01;;;;;;;15.45;2.40;;;;;;;6.17;100.00;100251.66;5023985;28;20033;-74
2022/04/05 01:05:27;;;;;;;6.35;1.33;;;;;;;6.14;100.00;100258.00;5027289;28;20029;-74
2022/04/05 01:07:55;;;;;;;6.40;1.33;;;;;;;6.17;100.00;100268.19;5023438;28;20036;-74
2022/04/05 01:10:21;;;;;;;7.63;2.45;;;;;;;6.18;100.00;100262.00;5022582;28;20064;-74
2022/04/05 01:12:48;;;;;;;6.07;1.17;;;;;;;6.17;100.00;100268.19;5022897;28;20026;-74
2022/04/05 01:15:14;;;;;;;10.65;1.58;;;;;;;6.13;100.00;100273.84;5022122;28;20037;-74
2022/04/05 01:17:39;;;;;;;6.70;1.48;;;;;;;6.12;100.00;100282.69;5023782;28;20124;-74
2022/04/05 01:20:05;;;;;;;8.77;1.90;;;;;;;6.08;100.00;100283.91;5018295;28;20033;-74
2022/04/05 01:22:31;;;;;;;4.68;1.02;;;;;;;6.07;100.00;100282.25;5025197;28;20036;-74
2022/04/05 01:24:57;;;;;;;8.93;0.95;;;;;;;6.02;99.75;100272.16;5025081;28;20050;-74
2022/04/05 01:27:27;;;;;;;8.38;2.13;;;;;;;5.96;100.00;100270.09;5025274;28;20384;-74
2022/04/05 01:29:53;;;;;;;4.53;1.10;;;;;;;5.95;100.00;100276.31;5019400;28;20133;-74
2022/04/05 01:32:19;;;;;;;10.73;1.95;;;;;;;5.87;100.00;100255.97;5021322;28;20560;-74
2022/04/05 01:34:44;;;;;;;5.85;0.80;;;;;;;5.96;100.00;100270.09;5006791;28;20032;-74
2022/04/05 01:37:10;;;;;;;5.47;1.13;;;;;;;5.92;100.00;100287.00;5020704;28;20029;-74
2022/04/05 01:39:38;;;;;;;5.68;1.42;;;;;;;5.82;100.00;100280.94;5018993;28;20041;-74
2022/04/05 01:42:10;;;;;;;8.07;1.25;;;;;;;5.88;100.00;100293.47;5021005;28;20029;-74
2022/04/05 01:44:37;;;;;;;7.97;1.40;;;;;;;5.87;100.00;100289.19;5019109;28;20035;-74
2022/04/05 01:47:11;;;;;;;10.32;2.88;;;;;;;5.86;100.00;100292.78;5018451;28;20509;-74
2022/04/05 01:49:37;;;;;;;9.93;1.55;;;;;;;5.77;100.00;100274.28;5018359;28;20108;-74
2022/04/05 01:52:04;;;;;;;16.08;3.15;;;;;;;5.75;100.00;100268.34;5023871;28;20026;-74
2022/04/05 01:54:30;;;;;;;7.70;2.00;;;;;;;5.88;100.00;100280.38;5021923;28;20034;-74
2022/04/05 01:56:55;;;;;;;7.45;1.40;;;;;;;5.85;100.00;100278.03;5019976;28;20088;-74
2022/04/05 01:59:25;;;;;;;17.10;2.10;;;;;;;5.85;100.00;100278.03;5001569;28;20327;-74
2022/04/05 02:01:51;;;;;;;14.13;2.00;;;;;;;5.73;100.00;100274.69;5019113;28;20022;-74
2022/04/05 02:04:16;;;;;;;9.52;1.58;;;;;;;5.75;100.00;100268.34;5006884;28;20041;-74
2022/04/05 02:06:43;;;;;;;9.70;1.60;;;;;;;5.85;100.00;100289.31;5014710;28;20064;-74
2022/04/05 02:09:11;;;;;;;11.95;1.42;;;;;;;5.85;100.00;100301.59;5017422;28;20052;-74
2022/04/05 02:11:37;;;;;;;5.50;1.45;;;;;;;5.85;100.00;100296.34;5018968;28;20061;-74
2022/04/05 02:14:03;;;;;;;13.48;1.75;;;;;;;5.83;100.00;100291.25;5020411;28;20455;-74
2022/04/05 02:16:28;;;;;;;5.45;1.38;;;;;;;5.78;100.00;100293.44;5022619;28;20022;-74
2022/04/05 02:18:54;;;;;;;8.25;1.35;;;;;;;5.70;100.00;100288.84;5020502;28;20021;-74
2022/04/05 02:21:19;;;;;;;9.35;1.55;;;;;;;5.72;99.51;100307.06;5016163;28;20246;-74
2022/04/05 02:23:45;;;;;;;7.50;1.83;;;;;;;5.73;100.00;100301.69;5018395;28;20013;-74
2022/04/05 02:26:11;;;;;;;3.97;1.08;;;;;;;5.70;99.63;100296.72;5020192;28;20026;-74
2022/04/05 02:28:36;;;;;;;8.65;1.23;;;;;;;5.76;99.74;100306.66;5017240;28;20045;-74
2022/04/05 02:31:02;;;;;;;7.25;1.65;;;;;;;5.75;99.58;100297.16;5020915;28;20044;-75
2022/04/05 02:33:27;;;;;;;5.13;0.95;;;;;;;5.69;98.95;100289.00;4999118;28;20029;-73
2022/04/05 02:35:52;;;;;;;5.07;0.65;;;;;;;5.78;98.97;100304.75;5020768;28;20037;-73
2022/04/05 02:38:18;;;;;;;9.80;1.15;;;;;;;5.81;99.32;100305.44;5019800;28;20038;-73
2022/04/05 02:40:44;;;;;;;8.93;1.20;;;;;;;5.79;99.16;100313.41;5017617;28;20044;-73
2022/04/05 02:43:10;;;;;;;4.05;0.90;;;;;;;5.79;99.55;100316.03;5016684;28;20069;-74
2022/04/05 02:45:35;;;;;;;8.85;1.77;;;;;;;5.82;99.50;100310.56;5017065;28;20065;-73
2022/04/05 02:48:01;;;;;;;5.70;1.58;;;;;;;5.84;99.18;100307.81;5020403;28;20191;-73
2022/04/05 02:50:26;;;;;;;8.23;1.10;;;;;;;5.73;99.29;100291.22;5017827;28;20029;-73
2022/04/05 02:52:52;;;;;;;10.10;1.95;;;;;;;5.78;99.28;100307.34;5020237;28;20030;-73
2022/04/05 02:55:18;;;;;;;10.88;1.55;;;;;;;5.77;99.65;100308.34;5016608;28;20040;-73
2022/04/05 02:57:45;;;;;;;7.90;1.23;;;;;;;5.70;100.00;100294.09;5018345;28;20040;-73
2022/04/05 03:00:13;;;;;;;5.95;2.55;;;;;;;5.76;99.85;100311.06;5013267;28;20032;-73
2022/04/05 03:02:39;;;;;;;8.15;1.77;;;;;;;5.71;99.91;100311.47;5018827;28;20091;-73
2022/04/05 03:05:06;;;;;;;10.10;1.95;;;;;;;5.66;100.00;100299.72;5020390;28;20767;-73
2022/04/05 03:07:32;;;;;;;5.30;1.83;;;;;;;5.70;100.00;100312.41;5016782;28;20041;-73
2022/04/05 03:09:57;;;;;;;7.25;1.52;;;;;;;5.70;99.98;100314.22;5015307;28;20030;-73
2022/04/05 03:12:22;;;;;;;4.28;1.10;;;;;;;5.67;100.00;100319.72;5016733;28;20547;-73
2022/04/05 03:14:48;;;;;;;6.38;0.98;;;;;;;5.70;100.00;100325.50;5020229;28;20030;-73
2022/04/05 03:17:14;;;;;;;6.90;2.03;;;;;;;5.68;100.00;100322.22;5017833;28;20386;-73
2022/04/05 03:19:39;;;;;;;6.38;2.00;;;;;;;5.69;100.00;100328.28;5012417;28;20112;-73
2022/04/05 03:22:09;;;;;;;8.48;1.45;;;;;;;5.68;100.00;100322.22;5020398;28;20124;-73
2022/04/05 03:24:35;;;;;;;13.25;1.52;;;;;;;5.68;100.00;100332.69;5016304;28;20030;-73
2022/04/05 03:27:01;;;;;;;8.75;1.00;;;;;;;5.61;100.00;100322.88;5019021;28;20030;-75
2022/04/05 03:29:26;;;;;;;6.32;1.20;;;;;;;5.59;100.00;100330.84;5016223;28;20084;-73
2022/04/05 03:31:52;;;;;;;4.15;1.10;;;;;;;5.66;100.00;100337.22;5018034;28;20033;-73
2022/04/05 03:34:17;;;;;;;9.27;1.02;;;;;;;5.62;100.00;100320.13;5018162;28;20117;-73
2022/04/05 03:36:45;;;;;;;7.25;1.00;;;;;;;5.67;100.00;100325.78;5001678;28;20034;-73
2022/04/05 03:39:13;;;;;;;7.10;1.77;;;;;;;5.63;100.00;100310.47;5016955;28;20046;-73
2022/04/05 03:41:41;;;;;;;4.45;1.15;;;;;;;5.70;100.00;100316.84;5019294;28;20030;-73
2022/04/05 03:44:07;;;;;;;9.88;1.55;;;;;;;5.71;100.00;100313.28;5018264;28;20026;-73
2022/04/05 03:46:33;;;;;;;5.18;1.45;;;;;;;5.56;100.00;100299.69;5017858;28;20026;-73
2022/04/05 03:48:59;;;;;;;9.70;1.10;;;;;;;5.60;100.00;100308.94;4997980;28;20116;-73
2022/04/05 03:51:24;;;;;;;34.70;2.20;;;;;;;5.68;100.00;100324.84;5012221;28;20458;-73
2022/04/05 03:53:49;;;;;;;15.18;2.65;;;;;;;5.70;100.00;100322.06;4992222;28;20571;-75
2022/04/05 03:56:15;;;;;;;13.13;1.27;;;;;;;5.72;100.00;100326.22;5016167;28;20038;-74
2022/04/05 03:58:41;;;;;;;9.35;1.90;;;;;;;5.60;100.00;100315.97;5016839;28;20021;-74
2022/04/05 04:01:07;;;;;;;7.28;1.40;;;;;;;5.68;100.00;100339.69;5016164;28;20029;-74
2022/04/05 04:03:35;;;;;;;9.70;1.20;;;;;;;5.61;100.00;100318.44;5016143;28;20030;-74
2022/04/05 04:06:01;;;;;;;2.97;1.27;;;;;;;5.48;100.00;100297.72;5017129;28;20100;-74
2022/04/05 04:08:27;;;;;;;8.98;1.70;;;;;;;5.64;100.00;100327.81;5016334;28;20184;-73
2022/04/05 04:10:52;;;;;;;9.00;1.63;;;;;;;5.63;100.00;100326.19;5018567;28;20033;-74
2022/04/05 04:13:19;;;;;;;10.65;1.63;;;;;;;5.59;100.00;100311.69;5016835;28;20548;-75
2022/04/05 04:15:44;;;;;;;15.73;1.63;;;;;;;5.66;100.00;100325.91;5019365;28;20383;-74
2022/04/05 04:18:10;;;;;;;13.85;1.33;;;;;;;5.68;100.00;100324.84;5016361;28;20041;-74
2022/04/05 04:20:38;;;;;;;11.60;2.42;;;;;;;5.67;100.00;100320.53;5014423;28;20037;-74
2022/04/05 04:23:03;;;;;;;7.32;1.63;;;;;;;5.66;100.00;100316.28;5015666;28;20057;-74
2022/04/05 04:25:30;;;;;;;7.82;1.67;;;;;;;5.68;100.00;100319.59;5017570;28;20124;-74
2022/04/05 04:27:55;;;;;;;10.35;1.48;;;;;;;5.67;100.00;100317.94;5015806;28;20044;-73
2022/04/05 04:30:21;;;;;;;12.10;0.90;;;;;;;5.66;100.00;100316.28;5016185;28;20049;-73
2022/04/05 04:32:47;;;;;;;4.88;0.90;;;;;;;5.66;100.00;100310.19;5015887;28;20109;-73
2022/04/05 04:35:12;;;;;;;8.13;0.93;;;;;;;5.65;100.00;100319.03;5017033;28;20036;-73
2022/04/05 04:37:38;;;;;;;8.90;1.50;;;;;;;5.57;100.00;100314.44;5018236;28;20037;-73
2022/04/05 04:40:04;;;;;;;7.55;1.35;;;;;;;5.59;100.00;100328.22;5014650;28;20121;-73
2022/04/05 04:42:34;;;;;;;11.38;2.38;;;;;;;5.59;100.00;100328.22;5014144;28;20060;-73
2022/04/05 04:45:01;;;;;;;5.50;1.13;;;;;;;5.61;100.00;100328.91;5013797;28;20029;-73
2022/04/05 04:47:26;;;;;;;6.30;0.98;;;;;;;5.63;100.00;100337.47;5017547;28;20046;-73
2022/04/05 04:49:52;;;;;;;9.30;1.42;;;;;;;5.65;100.00;100340.78;5006392;28;20041;-73
2022/04/05 04:52:17;;;;;;;8.27;1.48;;;;;;;5.67;100.00;100344.09;5007399;28;20026;-73
2022/04/05 04:54:42;;;;;;;9.10;1.30;;;;;;;5.56;100.00;100333.72;5011315;28;20028;-74
2022/04/05 04:57:08;;;;;;;11.00;1.55;;;;;;;5.66;100.00;100350.31;5008878;28;20125;-74
2022/04/05 04:59:33;;;;;;;8.30;1.42;;;;;;;5.66;100.00;100350.31;5008892;28;20164;-74
2022/04/05 05:01:59;;;;;;;6.15;1.25;;;;;;;5.64;100.00;100351.38;5010756;28;20034;-74
2022/04/05 05:04:24;;;;;;;6.07;1.92;;;;;;;5.65;100.00;100346.03;5015298;28;20048;-74
2022/04/05 05:06:51;;;;;;;4.78;1.10;;;;;;;5.66;100.00;100345.09;5018103;28;20044;-74
2022/04/05 05:09:16;;;;;;;7.40;0.75;;;;;;;5.60;100.00;100336.94;5019624;28;20033;-74
2022/04/05 05:11:44;;;;;;;5.60;1.48;;;;;;;5.66;100.00;100345.09;5022150;28;20536;-73
2022/04/05 05:14:09;;;;;;;7.88;1.25;;;;;;;5.67;100.00;100338.88;5017377;28;20164;-74
2022/04/05 05:16:35;;;;;;;8.85;1.33;;;;;;;5.68;100.00;100335.31;5021478;28;20030;-74
2022/04/05 05:19:00;;;;;;;7.43;1.52;;;;;;;5.66;100.00;100337.22;5018890;28;20036;-75
2022/04/05 05:21:25;;;;;;;3.55;1.15;;;;;;;5.68;100.00;100337.94;5021377;28;20038;-75
2022/04/05 05:23:51;;;;;;;6.75;1.67;;;;;;;5.70;100.00;100341.22;5011309;28;20079;-75
2022/04/05 05:26:16;;;;;;;7.47;1.42;;;;;;;5.63;100.00;100327.00;5012059;28;20080;-75
2022/04/05 05:28:42;;;;;;;5.88;0.93;;;;;;;5.72;100.00;100336.69;5011210;28;20057;-74
2022/04/05 05:31:07;;;;;;;7.43;1.50;;;;;;;5.76;100.00;100343.31;5007668;28;20393;-75
2022/04/05 05:33:32;;;;;;;5.32;0.90;;;;;;;5.74;100.00;100342.63;5017337;28;20022;-73
2022/04/05 05:35:59;;;;;;;6.53;1.30;;;;;;;5.81;99.90;100349.94;5010281;28;20053;-74
2022/04/05 05:38:25;;;;;;;7.05;1.88;;;;;;;5.69;99.88;100329.09;5009271;28;20607;-75
2022/04/05 05:40:50;;;;;;;7.68;1.48;;;;;;;5.84;100.00;100349.72;5012408;28;20121;-75
2022/04/05 05:43:16;;;;;;;4.75;1.02;;;;;;;5.89;100.00;100352.75;5007501;28;20040;-74
2022/04/05 05:45:41;;;;;;;5.78;1.17;;;;;;;5.89;100.00;100352.75;5012605;28;20037;-74
2022/04/05 05:48:08;;;;;;;4.28;0.98;;;;;;;5.93;100.00;100352.34;5015886;28;20306;-74
2022/04/05 05:50:33;;;;;;;5.22;1.00;;;;;;;5.95;100.00;100352.25;5012714;28;20044;-74
2022/04/05 05:52:59;;;;;;;4.30;0.90;;;;;;;5.96;100.00;100359.97;5017589;28;20021;-74
2022/04/05 05:55:25;;;;;;;11.45;1.48;;;;;;;6.00;100.00;100359.72;5015522;28;20044;-74
2022/04/05 05:57:51;;;;;;;9.73;1.77;;;;;;;5.87;100.00;100342.41;5022556;28;20060;-75
2022/04/05 06:00:21;;;;;;;9.90;2.50;;;;;;;6.02;100.00;100361.25;5017764;28;20049;-74
2022/04/05 06:02:48;;;;;;;10.50;2.33;;;;;;;5.88;100.00;100335.38;5021652;28;20029;-75
2022/04/05 06:05:14;;;;;;;9.68;1.42;;;;;;;6.07;100.00;100369.53;5013617;28;20044;-74
2022/04/05 06:07:41;;;;;;;10.77;1.63;;;;;;;6.10;100.00;100371.06;5014908;28;20041;-75
2022/04/05 06:10:07;;;;;;;4.82;1.10;;;;;;;6.17;100.00;100373.00;5012842;28;20584;-75
2022/04/05 06:12:36;;;;;;;8.38;1.05;;;;;;;6.25;100.00;100374.97;5020774;28;20025;-74
2022/04/05 06:15:01;;;;;;;15.23;2.10;;;;;;;6.33;100.00;100371.69;5015343;28;20041;-74
2022/04/05 06:17:27;;;;;;;7.97;1.10;;;;;;;6.38;100.00;100372.13;5019282;28;20039;-74
2022/04/05 06:19:52;;;;;;;5.97;1.27;;;;;;;6.43;100.00;100371.72;5018101;28;20026;-74
2022/04/05 06:22:17;;;;;;;11.77;1.92;;;;;;;6.36;100.00;100359.13;5016734;28;20022;-74
2022/04/05 06:24:43;;;;;;;8.10;2.53;;;;;;;6.48;100.00;100372.94;5003385;28;20030;-74
2022/04/05 06:27:08;;;;;;;5.20;1.45;;;;;;;6.52;100.00;100371.72;5019313;28;20033;-74
2022/04/05 06:29:34;;;;;;;9.32;1.58;;;;;;;6.62;100.00;100376.16;5014285;28;20041;-74
2022/04/05 06:32:00;;;;;;;7.43;1.45;;;;;;;6.69;100.00;100370.22;5017664;28;20063;-74
2022/04/05 06:34:26;;;;;;;16.98;1.92;;;;;;;6.69;100.00;100372.03;5015553;28;20027;-74
2022/04/05 06:36:53;;;;;;;7.55;1.35;;;;;;;6.68;100.00;100370.34;5022782;28;20029;-73
2022/04/05 06:39:19;;;;;;;9.25;1.33;;;;;;;6.73;100.00;100374.25;5012883;28;20282;-74
2022/04/05 06:41:44;;;;;;;7.63;1.75;;;;;;;6.71;100.00;100368.31;5016249;28;20040;-73
2022/04/05 06:44:09;;;;;;;15.18;2.65;;;;;;;6.80;100.00;100380.59;4998408;28;20026;-73
2022/04/05 06:46:35;;;;;;;5.97;1.90;;;;;;;6.81;100.00;100378.78;5021261;28;20241;-73
2022/04/05 06:49:00;;;;;;;9.73;2.20;;;;;;;6.86;100.00;100381.84;5012904;28;20036;-73
2022/04/05 06:51:26;;;;;;;7.03;1.13;;;;;;;6.93;100.00;100382.13;5016563;28;20065;-73
2022/04/05 06:53:51;;;;;;;8.80;1.48;;;;;;;6.96;100.00;100380.03;5018111;28;20025;-73
2022/04/05 06:56:21;;;;;;;6.43;1.15;;;;;;;6.99;100.00;100382.41;5017738;28;20489;-75
2022/04/05 06:58:47;;;;;;;9.65;1.35;;;;;;;7.00;100.00;100381.41;5016697;28;20049;-75
2022/04/05 07:01:13;;;;;;;4.65;1.30;;;;;;;7.04;100.00;100375.91;5012817;28;20037;-75
2022/04/05 07:03:38;;;;;;;6.93;1.35;;;;;;;7.15;100.00;100375.75;5015048;28;20552;-74
2022/04/05 07:06:03;;;;;;;8.85;2.22;;;;;;;7.14;100.00;100360.97;5011643;28;20036;-74
2022/04/05 07:08:29;;;;;;;12.57;1.42;;;;;;;7.24;99.85;100361.78;5019277;28;20108;-74
2022/04/05 07:10:54;;;;;;;12.77;1.52;;;;;;;7.41;99.75;100373.38;5012021;28;20538;-74
2022/04/05 07:13:19;;;;;;;7.88;2.20;;;;;;;7.43;99.55;100360.13;5014422;28;20128;-74
2022/04/05 07:15:45;;;;;;;10.23;1.80;;;;;;;7.56;99.28;100371.16;5021644;28;20531;-74
2022/04/05 07:18:10;;;;;;;9.38;1.70;;;;;;;7.63;98.88;100372.22;5014100;28;20037;-74
2022/04/05 07:20:37;;;;;;;7.80;1.65;;;;;;;7.60;97.96;100356.75;5019495;28;20037;-74
2022/04/05 07:23:03;;;;;;;12.10;2.03;;;;;;;7.73;97.73;100370.41;5009830;28;20022;-74
2022/04/05 07:25:29;;;;;;;5.22;1.30;;;;;;;7.74;97.32;100364.16;5015630;28;20025;-75
2022/04/05 07:27:54;;;;;;;10.00;2.30;;;;;;;7.72;96.06;100376.63;5019317;28;20748;-75
2022/04/05 07:30:20;;;;;;;5.28;1.48;;;;;;;7.74;95.87;100377.31;5016812;28;20140;-74
2022/04/05 07:32:46;;;;;;;9.05;1.58;;;;;;;7.74;95.67;100381.72;5021635;28;20029;-74
2022/04/05 07:35:13;;;;;;;3.35;1.20;;;;;;;7.79;95.73;100376.88;5020167;28;20040;-75
2022/04/05 07:37:39;;;;;;;7.78;1.75;;;;;;;7.85;95.93;100386.81;5020428;28;20444;-75
2022/04/05 07:40:05;;;;;;;14.25;1.73;;;;;;;7.82;95.99;100379.22;5015324;28;20034;-75
2022/04/05 07:42:32;;;;;;;11.40;2.65;;;;;;;7.87;96.28;100384.88;5017800;28;20080;-74
2022/04/05 07:44:58;;;;;;;10.60;1.58;;;;;;;7.91;96.76;100380.16;5023035;28;20026;-74
2022/04/05 07:47:23;;;;;;;7.90;1.48;;;;;;;7.95;96.40;100377.09;5018401;28;20582;-74
2022/04/05 07:49:49;;;;;;;6.55;1.52;;;;;;;8.02;96.64;100379.97;5016529;28;20036;-74
2022/04/05 07:52:14;;;;;;;4.43;1.40;;;;;;;8.05;97.12;100379.69;5010603;28;20112;-75
2022/04/05 07:54:41;;;;;;;8.40;1.58;;;;;;;8.13;97.09;100377.16;5015627;28;20486;-75
2022/04/05 07:57:08;;;;;;;7.13;1.85;;;;;;;8.13;96.31;100392.94;5017823;28;20529;-75
2022/04/05 07:59:34;;;;;;;7.70;1.85;;;;;;;8.19;95.60;100386.28;5012737;28;20132;-75
2022/04/05 08:01:59;;;;;;;7.85;1.10;;;;;;;8.19;95.15;100381.84;5019280;28;20049;-75
2022/04/05 08:04:25;;;;;;;8.48;1.42;;;;;;;8.12;94.59;100378.13;5015576;28;20083;-75
2022/04/05 08:06:50;;;;;;;6.45;1.33;;;;;;;8.12;94.71;100377.28;5022932;28;20095;-75
2022/04/05 08:09:15;;;;;;;5.57;1.13;;;;;;;8.10;94.76;100363.47;5016093;28;20064;-75
2022/04/05 08:11:41;;;;;;;7.15;1.50;;;;;;;8.33;94.45;100379.69;5015685;28;20401;-75
2022/04/05 08:14:06;;;;;;;4.30;1.30;;;;;;;8.39;94.78;100379.09;5010998;28;20017;-75
2022/04/05 08:16:32;;;;;;;9.82;1.30;;;;;;;8.38;94.26;100375.66;5000842;28;20478;-75
2022/04/05 08:18:57;;;;;;;6.22;1.08;;;;;;;8.19;93.49;100359.97;5023543;28;20091;-75
2022/04/05 08:21:23;;;;;;;9.48;1.60;;;;;;;8.25;93.82;100380.41;5016639;28;20379;-75
2022/04/05 08:23:50;;;;;;;5.05;1.02;;;;;;;8.20;93.97;100375.59;5023286;28;20473;-75
2022/04/05 08:26:16;;;;;;;10.38;1.85;;;;;;;8.14;94.42;100370.91;5011196;28;20045;-74
2022/04/05 08:28:42;;;;;;;6.95;1.17;;;;;;;7.97;94.24;100361.16;5022689;28;20452;-74
2022/04/05 08:31:07;;;;;;;10.30;1.65;;;;;;;8.06;94.14;100367.34;5010339;28;20030;-74
2022/04/05 08:33:34;;;;;;;10.93;1.55;;;;;;;7.99;94.51;100367.97;5023062;28;20025;-74
2022/04/05 08:35:59;;;;;;;3.47;1.23;;;;;;;8.10;95.26;100364.31;5021004;28;20032;-74
2022/04/05 08:38:26;;;;;;;8.60;1.77;;;;;;;8.12;95.18;100354.50;5007160;28;20041;-75
2022/04/05 08:40:53;;;;;;;3.83;1.00;;;;;;;8.32;95.29;100364.88;5018395;28;20037;-75
2022/04/05 08:43:18;;;;;;;8.98;1.90;;;;;;;8.53;94.24;100352.31;5018634;28;20040;-74
2022/04/05 08:45:45;;;;;;;8.32;1.60;;;;;;;8.83;94.75;100360.84;5014396;28;20034;-74
2022/04/05 08:48:12;;;;;;;6.10;1.58;;;;;;;8.95;93.23;100359.63;5013974;28;20115;-74
2022/04/05 08:50:38;;;;;;;7.85;1.65;;;;;;;9.11;92.14;100345.78;5024888;28;20443;-74
2022/04/05 08:53:04;;;;;;;3.88;0.68;;;;;;;9.25;89.84;100368.94;5024739;28;20040;-74
2022/04/05 08:55:29;;;;;;;6.25;1.00;;;;;;;9.30;87.98;100367.63;5021430;28;20401;-74
2022/04/05 08:57:58;;;;;;;5.80;1.38;;;;;;;9.24;87.86;100358.56;5020160;28;20030;-75
2022/04/05 09:00:24;;;;;;;9.00;1.20;;;;;;;9.27;88.05;100374.03;5004596;28;20041;-75
2022/04/05 09:03:04;;;;;;;7.30;1.52;;;;;;;9.12;88.23;100367.66;5020465;28;20034;-75
2022/04/05 09:05:34;;;;;;;4.28;0.75;;;;;;;9.25;88.61;100376.00;5022859;28;20510;-75
2022/04/05 09:08:31;;;;;;;7.72;1.17;;;;;;;9.25;88.88;100355.78;5020340;28;20029;-75
2022/04/05 09:11:02;;;;;;;1.42;0.90;;;;;;;9.55;88.91;100376.53;5026581;28;20469;-75
2022/04/05 09:13:28;;;;;;;3.78;0.82;;;;;;;9.63;87.39;100374.78;5022764;28;20519;-75
2022/04/05 09:15:57;;;;;;;3.10;1.30;;;;;;;9.64;88.08;100372.97;5024555;28;20029;-75
2022/04/05 09:18:32;;;;;;;6.65;1.58;;;;;;;9.54;86.44;100381.00;5023165;28;20080;-75
2022/04/05 09:20:57;;;;;;;4.60;1.23;;;;;;;9.55;88.21;100371.28;5026149;28;20103;-75
2022/04/05 09:23:31;;;;;;;7.88;1.58;;;;;;;9.48;89.08;100369.25;5026668;28;20018;-75
2022/04/05 09:26:00;;;;;;;6.75;1.58;;;;;;;9.62;89.47;100367.03;5013077;28;20033;-75
2022/04/05 09:28:27;;;;;;;7.00;1.65;;;;;;;9.79;89.56;100368.78;5022113;28;20040;-75
2022/04/05 09:30:56;;;;;;;5.53;1.42;;;;;;;9.73;89.08;100363.31;5013538;28;20482;-74
2022/04/05 09:33:22;;;;;;;5.47;1.30;;;;;;;9.67;89.90;100362.97;5024050;28;20021;-74
2022/04/05 09:35:47;;;;;;;6.07;1.23;;;;;;;9.65;90.41;100377.28;5010590;28;20029;-74
2022/04/05 09:38:17;;;;;;;7.75;1.40;;;;;;;9.53;90.80;100378.50;5021807;28;20085;-75
2022/04/05 09:40:43;;;;;;;7.20;1.77;;;;;;;9.38;90.16;100392.22;5021512;28;20029;-74
2022/04/05 09:43:12;;;;;;;4.75;1.10;;;;;;;9.31;91.26;100379.81;5022273;28;20347;-74
2022/04/05 09:45:45;;;;;;;4.35;1.20;;;;;;;9.04;92.34;100366.63;5027299;28;20481;-74
2022/04/05 09:48:12;;;;;;;7.97;1.38;;;;;;;9.13;92.08;100387.75;5018584;28;20552;-74
2022/04/05 09:51:02;;;;;;;3.00;0.90;;;;;;;9.14;90.97;100384.13;5019834;28;20034;-75
2022/04/05 09:53:50;;;;;;;3.20;0.80;;;;;;;9.18;92.38;100382.84;5016406;28;20120;-75
2022/04/05 09:56:18;;;;;;;3.97;0.80;;;;;;;9.06;91.33;100387.53;5028010;28;20025;-74
2022/04/05 09:58:53;;;;;;;6.80;1.33;;;;;;;9.17;91.30;100386.47;5023939;28;20083;-74
2022/04/05 10:01:23;;;;;;;3.95;0.93;;;;;;;9.18;91.89;100364.41;5026116;28;20032;-74
2022/04/05 10:04:09;;;;;;;4.13;1.17;;;;;;;9.25;91.13;100381.25;5026908;28;20030;-74
2022/04/05 10:06:38;;;;;;;3.67;0.70;;;;;;;9.13;92.00;100364.06;5020174;28;20025;-75
2022/04/05 10:09:04;;;;;;;4.20;1.10;;;;;;;9.29;92.60;100389.69;5021546;28;20040;-75
2022/04/05 10:11:39;;;;;;;7.57;1.33;;;;;;;9.32;91.80;100379.69;5020411;28;20022;-75
2022/04/05 10:14:07;;;;;;;7.00;1.40;;;;;;;9.31;92.29;100375.38;5018224;28;20029;-75
2022/04/05 10:16:33;;;;;;;6.38;1.00;;;;;;;9.30;92.49;100368.47;5024857;28;20033;-75
2022/04/05 10:19:03;;;;;;;4.72;1.63;;;;;;;9.45;92.65;100376.63;5016249;28;20100;-75
2022/04/05 10:21:29;;;;;;;4.88;1.00;;;;;;;9.50;91.49;100366.47;5028506;28;20051;-75
2022/04/05 10:23:57;;;;;;;5.25;0.55;;;;;;;9.66;91.20;100371.81;5008217;28;20037;-75
2022/04/05 10:26:26;;;;;;;7.43;1.15;;;;;;;9.76;91.38;100369.09;5019389;28;20029;-75
2022/04/05 10:28:53;;;;;;;3.58;0.95;;;;;;;9.65;90.37;100345.66;5021966;28;20044;-75
2022/04/05 10:31:19;;;;;;;5.30;1.30;;;;;;;9.70;90.82;100364.44;5013800;28;20041;-75
2022/04/05 10:34:07;;;;;;;7.25;1.02;;;;;;;9.63;90.75;100366.06;5022706;28;20026;-74
2022/04/05 10:36:33;;;;;;;6.65;0.93;;;;;;;9.62;90.59;100367.84;5026165;28;20112;-75
2022/04/05 10:39:19;;;;;;;6.85;0.80;;;;;;;9.66;91.21;100379.72;5019369;28;20124;-75
2022/04/05 10:42:13;;;;;;;4.18;0.80;;;;;;;9.63;91.06;100368.69;5024209;28;20028;-75
2022/04/05 10:44:40;;;;;;;4.45;1.00;;;;;;;9.76;91.60;100374.38;5022021;28;20033;-75
2022/04/05 10:47:07;;;;;;;6.85;0.90;;;;;;;9.80;91.94;100359.91;5026222;28;20024;-75
2022/04/05 10:49:45;;;;;;;5.68;1.00;;;;;;;10.00;91.07;100375.47;5014569;28;20025;-75
2022/04/05 10:52:18;;;;;;;4.28;0.90;;;;;;;9.92;90.33;100372.81;5024701;28;20037;-75
2022/04/05 10:54:46;;;;;;;1.70;0.30;;;;;;;10.09;90.06;100374.53;5024018;28;20022;-75
2022/04/05 10:57:32;;;;;;;1.30;0.98;;;;;;;10.27;88.68;100369.97;5023708;28;20028;-75
2022/04/05 11:00:07;;;;;;;2.13;0.73;;;;;;;10.31;86.86;100362.59;5013105;28;20021;-75
2022/04/05 11:02:39;;;;;;;2.13;0.60;;;;;;;10.26;88.51;100360.41;5020247;28;20018;-75
2022/04/05 11:05:14;;;;;;;3.13;1.00;;;;;;;10.41;86.77;100368.56;5026792;28;20081;-73
2022/04/05 11:07:51;;;;;;;2.33;0.52;;;;;;;10.49;87.12;100363.34;5020892;28;20666;-74
2022/04/05 11:10:19;;;;;;;2.72;0.70;;;;;;;10.55;86.13;100368.94;5022206;28;20034;-74
2022/04/05 11:12:44;;;;;;;2.15;0.60;;;;;;;10.49;85.48;100354.56;5012250;28;20398;-74
2022/04/05 11:15:10;;;;;;;0.60;0.32;;;;;;;10.48;85.23;100364.31;5008330;28;20030;-74
2022/04/05 11:17:37;;;;;;;1.38;0.40;;;;;;;10.34;85.58;100357.00;5021692;28;20029;-74
2022/04/05 11:20:03;;;;;;;1.75;0.75;;;;;;;10.38;87.11;100354.88;5020040;28;20264;-74
2022/04/05 11:22:35;;;;;;;4.57;1.20;;;;;;;10.39;86.93;100359.19;5019588;28;20036;-75
2022/04/05 11:25:10;;;;;;;3.33;0.63;;;;;;;10.31;85.63;100359.16;5019515;28;20037;-75
2022/04/05 11:27:46;;;;;;;1.70;0.63;;;;;;;10.27;86.20;100364.69;5016355;28;20425;-75